sensor_id;sensor_type;location;lat;lon;timestamp;temperature;humidity
9223;DHT22;7557;51.698;3.942;2023-12-20T00:00:35;8.30;99.90
9223;DHT22;7557;51.698;3.942;2023-12-20T00:03:03;8.30;99.90
9223;DHT22;7557;51.698;3.942;2023-12-20T00:05:31;8.30;99.90
9223;DHT22;7557;51.698;3.942;2023-12-20T00:08:01;8.30;99.90
9223;DHT22;7557;51.698;3.942;2023-12-20T00:10:28;8.30;99.90
9223;DHT22;7557;51.698;3.942;2023-12-20T00:12:55;8.30;99.90
9223;DHT22;7557;51.698;3.942;2023-12-20T00:15:23;8.40;99.90
9223;DHT22;7557;51.698;3.942;2023-12-20T00:17:50;8.40;99.90
9223;DHT22;7557;51.698;3.942;2023-12-20T00:20:18;8.30;99.90
9223;DHT22;7557;51.698;3.942;2023-12-20T00:22:44;8.30;99.90
9223;DHT22;7557;51.698;3.942;2023-12-20T00:25:13;8.40;99.90
9223;DHT22;7557;51.698;3.942;2023-12-20T00:27:41;8.30;99.90
9223;DHT22;7557;51.698;3.942;2023-12-20T00:30:10;8.30;99.90
9223;DHT22;7557;51.698;3.942;2023-12-20T00:32:37;8.30;99.90
9223;DHT22;7557;51.698;3.942;2023-12-20T00:35:05;8.30;99.90
9223;DHT22;7557;51.698;3.942;2023-12-20T00:37:32;8.30;99.90
9223;DHT22;7557;51.698;3.942;2023-12-20T00:40:00;8.30;99.90
9223;DHT22;7557;51.698;3.942;2023-12-20T00:42:29;8.30;99.90
9223;DHT22;7557;51.698;3.942;2023-12-20T00:44:56;8.30;99.90
9223;DHT22;7557;51.698;3.942;2023-12-20T00:47:24;8.30;99.90
9223;DHT22;7557;51.698;3.942;2023-12-20T00:49:51;8.30;99.90
9223;DHT22;7557;51.698;3.942;2023-12-20T00:52:19;8.40;99.90
9223;DHT22;7557;51.698;3.942;2023-12-20T00:54:47;8.40;99.90
9223;DHT22;7557;51.698;3.942;2023-12-20T00:57:15;8.40;99.90
9223;DHT22;7557;51.698;3.942;2023-12-20T00:59:44;8.50;99.90
9223;DHT22;7557;51.698;3.942;2023-12-20T01:02:11;8.50;99.90
9223;DHT22;7557;51.698;3.942;2023-12-20T01:04:39;8.50;99.90
9223;DHT22;7557;51.698;3.942;2023-12-20T01:07:07;8.50;99.90
9223;DHT22;7557;51.698;3.942;2023-12-20T01:09:34;8.50;99.90
9223;DHT22;7557;51.698;3.942;2023-12-20T01:12:02;8.50;99.90
9223;DHT22;7557;51.698;3.942;2023-12-20T01:14:29;8.50;99.90
9223;DHT22;7557;51.698;3.942;2023-12-20T01:16:59;8.50;99.90
9223;DHT22;7557;51.698;3.942;2023-12-20T01:19:27;8.50;99.90
9223;DHT22;7557;51.698;3.942;2023-12-20T01:21:55;8.40;99.90
9223;DHT22;7557;51.698;3.942;2023-12-20T01:24:23;8.40;99.90
9223;DHT22;7557;51.698;3.942;2023-12-20T01:26:50;8.40;99.90
9223;DHT22;7557;51.698;3.942;2023-12-20T01:29:18;8.40;99.90
9223;DHT22;7557;51.698;3.942;2023-12-20T01:31:46;8.40;99.90
9223;DHT22;7557;51.698;3.942;2023-12-20T01:34:15;8.40;99.90
9223;DHT22;7557;51.698;3.942;2023-12-20T01:36:43;8.50;99.90
9223;DHT22;7557;51.698;3.942;2023-12-20T01:39:10;8.50;99.90
9223;DHT22;7557;51.698;3.942;2023-12-20T01:41:37;8.50;99.90
9223;DHT22;7557;51.698;3.942;2023-12-20T01:44:05;8.60;99.90
9223;DHT22;7557;51.698;3.942;2023-12-20T01:46:33;8.50;99.90
9223;DHT22;7557;51.698;3.942;2023-12-20T01:49:01;8.50;99.90
9223;DHT22;7557;51.698;3.942;2023-12-20T01:51:30;8.50;99.90
9223;DHT22;7557;51.698;3.942;2023-12-20T01:53:59;8.50;99.90
9223;DHT22;7557;51.698;3.942;2023-12-20T01:56:31;8.50;99.90
9223;DHT22;7557;51.698;3.942;2023-12-20T01:59:00;8.40;99.90
9223;DHT22;7557;51.698;3.942;2023-12-20T02:01:28;8.40;99.90
9223;DHT22;7557;51.698;3.942;2023-12-20T02:03:56;8.40;99.90
9223;DHT22;7557;51.698;3.942;2023-12-20T02:06:25;8.40;99.90
9223;DHT22;7557;51.698;3.942;2023-12-20T02:08:55;8.40;99.90
9223;DHT22;7557;51.698;3.942;2023-12-20T02:11:24;8.30;99.90
9223;DHT22;7557;51.698;3.942;2023-12-20T02:13:54;8.30;99.90
9223;DHT22;7557;51.698;3.942;2023-12-20T02:16:23;8.30;99.90
9223;DHT22;7557;51.698;3.942;2023-12-20T02:18:51;8.30;99.90
9223;DHT22;7557;51.698;3.942;2023-12-20T02:21:19;8.30;99.90
9223;DHT22;7557;51.698;3.942;2023-12-20T02:23:48;8.30;99.90
9223;DHT22;7557;51.698;3.942;2023-12-20T02:26:16;8.30;99.90
9223;DHT22;7557;51.698;3.942;2023-12-20T02:28:44;8.40;99.90
9223;DHT22;7557;51.698;3.942;2023-12-20T02:31:14;8.40;99.90
9223;DHT22;7557;51.698;3.942;2023-12-20T02:33:42;8.40;99.90
9223;DHT22;7557;51.698;3.942;2023-12-20T02:36:11;8.40;99.90
9223;DHT22;7557;51.698;3.942;2023-12-20T02:38:39;8.50;99.90
9223;DHT22;7557;51.698;3.942;2023-12-20T02:41:08;8.50;99.90
9223;DHT22;7557;51.698;3.942;2023-12-20T02:43:36;8.50;99.90
9223;DHT22;7557;51.698;3.942;2023-12-20T02:46:03;8.40;99.90
9223;DHT22;7557;51.698;3.942;2023-12-20T02:48:31;8.40;99.90
9223;DHT22;7557;51.698;3.942;2023-12-20T02:50:58;8.40;99.90
9223;DHT22;7557;51.698;3.942;2023-12-20T02:53:26;8.40;99.90
9223;DHT22;7557;51.698;3.942;2023-12-20T02:55:54;8.30;99.90
9223;DHT22;7557;51.698;3.942;2023-12-20T02:58:23;8.30;99.90
9223;DHT22;7557;51.698;3.942;2023-12-20T03:00:51;8.30;99.90
9223;DHT22;7557;51.698;3.942;2023-12-20T03:03:19;8.30;99.90
9223;DHT22;7557;51.698;3.942;2023-12-20T03:05:46;8.30;99.90
9223;DHT22;7557;51.698;3.942;2023-12-20T03:08:14;8.30;99.90
9223;DHT22;7557;51.698;3.942;2023-12-20T03:10:41;8.30;99.90
9223;DHT22;7557;51.698;3.942;2023-12-20T03:13:09;8.30;99.90
9223;DHT22;7557;51.698;3.942;2023-12-20T03:15:38;8.30;99.90
9223;DHT22;7557;51.698;3.942;2023-12-20T03:18:06;8.30;99.90
9223;DHT22;7557;51.698;3.942;2023-12-20T03:20:33;8.30;99.90
9223;DHT22;7557;51.698;3.942;2023-12-20T03:23:01;8.30;99.90
9223;DHT22;7557;51.698;3.942;2023-12-20T03:25:28;8.30;99.90
9223;DHT22;7557;51.698;3.942;2023-12-20T03:27:56;8.30;99.90
9223;DHT22;7557;51.698;3.942;2023-12-20T03:30:24;8.30;99.90
9223;DHT22;7557;51.698;3.942;2023-12-20T03:32:53;8.30;99.90
9223;DHT22;7557;51.698;3.942;2023-12-20T03:35:20;8.30;99.90
9223;DHT22;7557;51.698;3.942;2023-12-20T03:37:48;8.30;99.90
9223;DHT22;7557;51.698;3.942;2023-12-20T03:40:16;8.30;99.90
9223;DHT22;7557;51.698;3.942;2023-12-20T03:42:44;8.30;99.90
9223;DHT22;7557;51.698;3.942;2023-12-20T03:45:12;8.30;99.90
9223;DHT22;7557;51.698;3.942;2023-12-20T03:47:39;8.30;99.90
9223;DHT22;7557;51.698;3.942;2023-12-20T03:50:09;8.30;99.90
9223;DHT22;7557;51.698;3.942;2023-12-20T03:52:37;8.30;99.90
9223;DHT22;7557;51.698;3.942;2023-12-20T03:55:05;8.30;99.90
9223;DHT22;7557;51.698;3.942;2023-12-20T03:57:33;8.30;99.90
9223;DHT22;7557;51.698;3.942;2023-12-20T04:00:01;8.30;99.90
9223;DHT22;7557;51.698;3.942;2023-12-20T04:02:28;8.30;99.90
9223;DHT22;7557;51.698;3.942;2023-12-20T04:04:56;8.30;99.90
9223;DHT22;7557;51.698;3.942;2023-12-20T04:07:23;8.30;99.90
9223;DHT22;7557;51.698;3.942;2023-12-20T04:09:51;8.30;99.90
9223;DHT22;7557;51.698;3.942;2023-12-20T04:12:18;8.30;99.90
9223;DHT22;7557;51.698;3.942;2023-12-20T04:14:46;8.30;99.90
9223;DHT22;7557;51.698;3.942;2023-12-20T04:17:14;8.30;99.90
9223;DHT22;7557;51.698;3.942;2023-12-20T04:19:43;8.30;99.90
9223;DHT22;7557;51.698;3.942;2023-12-20T04:22:10;8.30;99.90
9223;DHT22;7557;51.698;3.942;2023-12-20T04:24:40;8.30;99.90
9223;DHT22;7557;51.698;3.942;2023-12-20T04:27:08;8.30;99.90
9223;DHT22;7557;51.698;3.942;2023-12-20T04:29:35;8.30;99.90
9223;DHT22;7557;51.698;3.942;2023-12-20T04:32:03;8.30;99.90
9223;DHT22;7557;51.698;3.942;2023-12-20T04:34:31;8.30;99.90
9223;DHT22;7557;51.698;3.942;2023-12-20T04:36:58;8.30;99.90
9223;DHT22;7557;51.698;3.942;2023-12-20T04:39:27;8.30;99.90
9223;DHT22;7557;51.698;3.942;2023-12-20T04:41:56;8.30;99.90
9223;DHT22;7557;51.698;3.942;2023-12-20T04:44:24;8.30;99.90
9223;DHT22;7557;51.698;3.942;2023-12-20T04:46:53;8.30;99.90
9223;DHT22;7557;51.698;3.942;2023-12-20T04:49:27;8.30;99.90
9223;DHT22;7557;51.698;3.942;2023-12-20T04:51:54;8.20;99.90
9223;DHT22;7557;51.698;3.942;2023-12-20T04:54:22;8.20;99.90
9223;DHT22;7557;51.698;3.942;2023-12-20T04:56:50;8.20;99.90
9223;DHT22;7557;51.698;3.942;2023-12-20T04:59:20;8.20;99.90
9223;DHT22;7557;51.698;3.942;2023-12-20T05:01:47;8.20;99.90
9223;DHT22;7557;51.698;3.942;2023-12-20T05:04:15;8.20;99.90
9223;DHT22;7557;51.698;3.942;2023-12-20T05:06:42;8.20;99.90
9223;DHT22;7557;51.698;3.942;2023-12-20T05:09:10;8.20;99.90
9223;DHT22;7557;51.698;3.942;2023-12-20T05:11:38;8.20;99.90
9223;DHT22;7557;51.698;3.942;2023-12-20T05:14:06;8.20;99.90
9223;DHT22;7557;51.698;3.942;2023-12-20T05:16:35;8.30;99.90
9223;DHT22;7557;51.698;3.942;2023-12-20T05:19:03;8.30;99.90
9223;DHT22;7557;51.698;3.942;2023-12-20T05:21:32;8.30;99.90
9223;DHT22;7557;51.698;3.942;2023-12-20T05:24:00;8.30;99.90
9223;DHT22;7557;51.698;3.942;2023-12-20T05:26:28;8.30;99.90
9223;DHT22;7557;51.698;3.942;2023-12-20T05:28:56;8.30;99.90
9223;DHT22;7557;51.698;3.942;2023-12-20T05:31:23;8.30;99.90
9223;DHT22;7557;51.698;3.942;2023-12-20T05:33:52;8.30;99.90
9223;DHT22;7557;51.698;3.942;2023-12-20T05:36:20;8.30;99.90
9223;DHT22;7557;51.698;3.942;2023-12-20T05:38:47;8.40;99.90
9223;DHT22;7557;51.698;3.942;2023-12-20T05:41:15;8.40;99.90
9223;DHT22;7557;51.698;3.942;2023-12-20T05:43:43;8.40;99.90
9223;DHT22;7557;51.698;3.942;2023-12-20T05:46:12;8.40;99.90
9223;DHT22;7557;51.698;3.942;2023-12-20T05:48:40;8.40;99.90
9223;DHT22;7557;51.698;3.942;2023-12-20T05:51:08;8.40;99.90
9223;DHT22;7557;51.698;3.942;2023-12-20T05:53:38;8.40;99.90
9223;DHT22;7557;51.698;3.942;2023-12-20T05:56:06;8.40;99.90
9223;DHT22;7557;51.698;3.942;2023-12-20T05:58:33;8.30;99.90
9223;DHT22;7557;51.698;3.942;2023-12-20T06:01:03;8.30;99.90
9223;DHT22;7557;51.698;3.942;2023-12-20T06:03:31;8.40;99.90
9223;DHT22;7557;51.698;3.942;2023-12-20T06:05:59;8.30;99.90
9223;DHT22;7557;51.698;3.942;2023-12-20T06:08:29;8.30;99.90
9223;DHT22;7557;51.698;3.942;2023-12-20T06:10:56;8.30;99.90
9223;DHT22;7557;51.698;3.942;2023-12-20T06:13:24;8.40;99.90
9223;DHT22;7557;51.698;3.942;2023-12-20T06:15:51;8.40;99.90
9223;DHT22;7557;51.698;3.942;2023-12-20T06:18:19;8.40;99.90
9223;DHT22;7557;51.698;3.942;2023-12-20T06:20:47;8.40;99.90
9223;DHT22;7557;51.698;3.942;2023-12-20T06:23:14;8.30;99.90
9223;DHT22;7557;51.698;3.942;2023-12-20T06:25:44;8.40;99.90
9223;DHT22;7557;51.698;3.942;2023-12-20T06:28:11;8.40;99.90
9223;DHT22;7557;51.698;3.942;2023-12-20T06:30:40;8.40;99.90
9223;DHT22;7557;51.698;3.942;2023-12-20T06:33:08;8.40;99.90
9223;DHT22;7557;51.698;3.942;2023-12-20T06:35:37;8.40;99.90
9223;DHT22;7557;51.698;3.942;2023-12-20T06:38:04;8.40;99.90
9223;DHT22;7557;51.698;3.942;2023-12-20T06:40:32;8.40;99.90
9223;DHT22;7557;51.698;3.942;2023-12-20T06:43:01;8.40;99.90
9223;DHT22;7557;51.698;3.942;2023-12-20T06:45:29;8.40;99.90
9223;DHT22;7557;51.698;3.942;2023-12-20T06:47:56;8.30;99.90
9223;DHT22;7557;51.698;3.942;2023-12-20T06:50:24;8.40;99.90
9223;DHT22;7557;51.698;3.942;2023-12-20T06:52:51;8.40;99.90
9223;DHT22;7557;51.698;3.942;2023-12-20T06:55:18;8.40;99.90
9223;DHT22;7557;51.698;3.942;2023-12-20T06:57:46;8.40;99.90
9223;DHT22;7557;51.698;3.942;2023-12-20T07:00:16;8.40;99.90
9223;DHT22;7557;51.698;3.942;2023-12-20T07:02:44;8.40;99.90
9223;DHT22;7557;51.698;3.942;2023-12-20T07:05:16;8.40;99.90
9223;DHT22;7557;51.698;3.942;2023-12-20T07:07:45;8.40;99.90
9223;DHT22;7557;51.698;3.942;2023-12-20T07:10:13;8.40;99.90
9223;DHT22;7557;51.698;3.942;2023-12-20T07:12:41;8.40;99.90
9223;DHT22;7557;51.698;3.942;2023-12-20T07:15:10;8.50;99.90
9223;DHT22;7557;51.698;3.942;2023-12-20T07:17:39;8.50;99.90
9223;DHT22;7557;51.698;3.942;2023-12-20T07:20:08;8.40;99.90
9223;DHT22;7557;51.698;3.942;2023-12-20T07:22:36;8.40;99.90
9223;DHT22;7557;51.698;3.942;2023-12-20T07:25:06;8.40;99.90
9223;DHT22;7557;51.698;3.942;2023-12-20T07:27:34;8.40;99.90
9223;DHT22;7557;51.698;3.942;2023-12-20T07:30:01;8.40;99.90
9223;DHT22;7557;51.698;3.942;2023-12-20T07:32:29;8.40;99.90
9223;DHT22;7557;51.698;3.942;2023-12-20T07:34:58;8.50;99.90
9223;DHT22;7557;51.698;3.942;2023-12-20T07:37:25;8.50;99.90
9223;DHT22;7557;51.698;3.942;2023-12-20T07:39:54;8.50;99.90
9223;DHT22;7557;51.698;3.942;2023-12-20T07:42:21;8.50;99.90
9223;DHT22;7557;51.698;3.942;2023-12-20T07:44:49;8.50;99.90
9223;DHT22;7557;51.698;3.942;2023-12-20T07:47:16;8.50;99.90
9223;DHT22;7557;51.698;3.942;2023-12-20T07:49:47;8.50;99.90
9223;DHT22;7557;51.698;3.942;2023-12-20T07:52:16;8.50;99.90
9223;DHT22;7557;51.698;3.942;2023-12-20T07:54:44;8.50;99.90
9223;DHT22;7557;51.698;3.942;2023-12-20T07:57:11;8.60;99.90
9223;DHT22;7557;51.698;3.942;2023-12-20T07:59:40;8.60;99.90
9223;DHT22;7557;51.698;3.942;2023-12-20T08:02:07;8.60;99.90
9223;DHT22;7557;51.698;3.942;2023-12-20T08:04:35;8.60;99.90
9223;DHT22;7557;51.698;3.942;2023-12-20T08:07:03;8.60;99.90
9223;DHT22;7557;51.698;3.942;2023-12-20T08:09:31;8.60;99.90
9223;DHT22;7557;51.698;3.942;2023-12-20T08:11:59;8.60;99.90
9223;DHT22;7557;51.698;3.942;2023-12-20T08:14:27;8.60;99.90
9223;DHT22;7557;51.698;3.942;2023-12-20T08:16:54;8.60;99.90
9223;DHT22;7557;51.698;3.942;2023-12-20T08:19:22;8.60;99.90
9223;DHT22;7557;51.698;3.942;2023-12-20T08:21:49;8.60;99.90
9223;DHT22;7557;51.698;3.942;2023-12-20T08:24:17;8.60;99.90
9223;DHT22;7557;51.698;3.942;2023-12-20T08:26:46;8.70;99.90
9223;DHT22;7557;51.698;3.942;2023-12-20T08:29:13;8.70;99.90
9223;DHT22;7557;51.698;3.942;2023-12-20T08:31:41;8.80;99.90
9223;DHT22;7557;51.698;3.942;2023-12-20T08:34:08;8.80;99.90
9223;DHT22;7557;51.698;3.942;2023-12-20T08:36:37;8.80;99.90
9223;DHT22;7557;51.698;3.942;2023-12-20T08:39:05;8.90;99.90
9223;DHT22;7557;51.698;3.942;2023-12-20T08:41:34;8.90;99.90
9223;DHT22;7557;51.698;3.942;2023-12-20T08:44:04;8.90;99.90
9223;DHT22;7557;51.698;3.942;2023-12-20T08:46:31;8.90;99.90
9223;DHT22;7557;51.698;3.942;2023-12-20T08:48:59;9.00;99.90
9223;DHT22;7557;51.698;3.942;2023-12-20T08:51:26;9.00;99.90
9223;DHT22;7557;51.698;3.942;2023-12-20T08:53:55;9.00;99.90
9223;DHT22;7557;51.698;3.942;2023-12-20T08:56:22;9.00;99.90
9223;DHT22;7557;51.698;3.942;2023-12-20T08:58:49;9.10;99.90
9223;DHT22;7557;51.698;3.942;2023-12-20T09:01:19;9.10;99.90
9223;DHT22;7557;51.698;3.942;2023-12-20T09:03:46;9.10;99.90
9223;DHT22;7557;51.698;3.942;2023-12-20T09:06:14;9.10;99.90
9223;DHT22;7557;51.698;3.942;2023-12-20T09:08:41;9.20;99.90
9223;DHT22;7557;51.698;3.942;2023-12-20T09:11:09;9.20;99.90
9223;DHT22;7557;51.698;3.942;2023-12-20T09:13:36;9.20;99.90
9223;DHT22;7557;51.698;3.942;2023-12-20T09:16:04;9.20;99.90
9223;DHT22;7557;51.698;3.942;2023-12-20T09:18:33;9.30;99.90
9223;DHT22;7557;51.698;3.942;2023-12-20T09:21:00;9.30;99.90
9223;DHT22;7557;51.698;3.942;2023-12-20T09:23:28;9.30;99.90
9223;DHT22;7557;51.698;3.942;2023-12-20T09:25:55;9.40;99.90
9223;DHT22;7557;51.698;3.942;2023-12-20T09:28:23;9.40;99.90
9223;DHT22;7557;51.698;3.942;2023-12-20T09:30:50;9.40;99.90
9223;DHT22;7557;51.698;3.942;2023-12-20T09:33:18;9.40;99.90
9223;DHT22;7557;51.698;3.942;2023-12-20T09:35:47;9.40;99.90
9223;DHT22;7557;51.698;3.942;2023-12-20T09:38:14;9.50;99.90
9223;DHT22;7557;51.698;3.942;2023-12-20T09:40:43;9.50;99.90
9223;DHT22;7557;51.698;3.942;2023-12-20T09:43:13;9.50;99.90
9223;DHT22;7557;51.698;3.942;2023-12-20T09:45:42;9.50;99.90
9223;DHT22;7557;51.698;3.942;2023-12-20T09:48:13;9.50;99.90
9223;DHT22;7557;51.698;3.942;2023-12-20T09:50:42;9.50;99.90
9223;DHT22;7557;51.698;3.942;2023-12-20T09:53:15;9.50;99.90
9223;DHT22;7557;51.698;3.942;2023-12-20T09:55:44;9.60;99.90
9223;DHT22;7557;51.698;3.942;2023-12-20T09:58:12;9.60;99.90
9223;DHT22;7557;51.698;3.942;2023-12-20T10:00:40;9.60;99.90
9223;DHT22;7557;51.698;3.942;2023-12-20T10:03:08;9.60;99.90
9223;DHT22;7557;51.698;3.942;2023-12-20T10:05:35;9.60;99.90
9223;DHT22;7557;51.698;3.942;2023-12-20T10:08:03;9.60;99.90
9223;DHT22;7557;51.698;3.942;2023-12-20T10:10:32;9.70;99.90
9223;DHT22;7557;51.698;3.942;2023-12-20T10:13:05;9.70;99.90
9223;DHT22;7557;51.698;3.942;2023-12-20T10:15:33;9.80;99.90
9223;DHT22;7557;51.698;3.942;2023-12-20T10:18:01;9.80;99.90
9223;DHT22;7557;51.698;3.942;2023-12-20T10:20:29;9.80;99.90
9223;DHT22;7557;51.698;3.942;2023-12-20T10:22:58;9.80;99.90
9223;DHT22;7557;51.698;3.942;2023-12-20T10:25:26;9.90;99.90
9223;DHT22;7557;51.698;3.942;2023-12-20T10:28:10;9.90;99.90
9223;DHT22;7557;51.698;3.942;2023-12-20T10:30:38;9.90;99.90
9223;DHT22;7557;51.698;3.942;2023-12-20T10:33:06;9.90;99.90
9223;DHT22;7557;51.698;3.942;2023-12-20T10:35:35;9.90;99.90
9223;DHT22;7557;51.698;3.942;2023-12-20T10:38:04;9.90;99.90
9223;DHT22;7557;51.698;3.942;2023-12-20T10:40:34;10.00;99.90
9223;DHT22;7557;51.698;3.942;2023-12-20T10:43:04;10.00;99.90
9223;DHT22;7557;51.698;3.942;2023-12-20T10:45:34;10.00;99.90
9223;DHT22;7557;51.698;3.942;2023-12-20T10:48:02;10.10;99.90
9223;DHT22;7557;51.698;3.942;2023-12-20T10:50:30;10.10;99.90
9223;DHT22;7557;51.698;3.942;2023-12-20T10:52:58;10.20;99.90
9223;DHT22;7557;51.698;3.942;2023-12-20T10:55:27;10.20;99.90
9223;DHT22;7557;51.698;3.942;2023-12-20T10:58:00;10.20;99.90
9223;DHT22;7557;51.698;3.942;2023-12-20T11:00:29;10.20;99.90
9223;DHT22;7557;51.698;3.942;2023-12-20T11:03:00;10.20;99.90
9223;DHT22;7557;51.698;3.942;2023-12-20T11:05:36;10.20;99.90
9223;DHT22;7557;51.698;3.942;2023-12-20T11:08:11;10.20;99.90
9223;DHT22;7557;51.698;3.942;2023-12-20T11:10:43;10.20;99.90
9223;DHT22;7557;51.698;3.942;2023-12-20T11:13:21;10.20;99.90
9223;DHT22;7557;51.698;3.942;2023-12-20T11:15:50;10.20;99.90
9223;DHT22;7557;51.698;3.942;2023-12-20T11:18:19;10.20;99.90
9223;DHT22;7557;51.698;3.942;2023-12-20T11:20:46;10.20;99.90
9223;DHT22;7557;51.698;3.942;2023-12-20T11:23:15;10.20;99.90
9223;DHT22;7557;51.698;3.942;2023-12-20T11:25:47;10.30;99.90
9223;DHT22;7557;51.698;3.942;2023-12-20T11:28:16;10.40;99.90
9223;DHT22;7557;51.698;3.942;2023-12-20T11:30:49;10.50;99.90
9223;DHT22;7557;51.698;3.942;2023-12-20T11:33:21;10.50;99.90
9223;DHT22;7557;51.698;3.942;2023-12-20T11:35:50;10.60;99.90
9223;DHT22;7557;51.698;3.942;2023-12-20T11:38:20;10.60;99.90
9223;DHT22;7557;51.698;3.942;2023-12-20T11:40:49;10.60;99.90
9223;DHT22;7557;51.698;3.942;2023-12-20T11:43:30;10.60;99.90
9223;DHT22;7557;51.698;3.942;2023-12-20T11:46:03;10.60;99.90
9223;DHT22;7557;51.698;3.942;2023-12-20T11:48:35;10.60;99.90
9223;DHT22;7557;51.698;3.942;2023-12-20T11:51:08;10.60;99.90
9223;DHT22;7557;51.698;3.942;2023-12-20T11:53:36;10.60;99.90
9223;DHT22;7557;51.698;3.942;2023-12-20T11:56:06;10.60;99.90
9223;DHT22;7557;51.698;3.942;2023-12-20T11:58:34;10.50;99.90
9223;DHT22;7557;51.698;3.942;2023-12-20T12:01:02;10.50;99.90
9223;DHT22;7557;51.698;3.942;2023-12-20T12:03:30;10.50;99.90
9223;DHT22;7557;51.698;3.942;2023-12-20T12:06:00;10.50;99.90
9223;DHT22;7557;51.698;3.942;2023-12-20T12:08:28;10.50;99.90
9223;DHT22;7557;51.698;3.942;2023-12-20T12:10:56;10.50;99.90
9223;DHT22;7557;51.698;3.942;2023-12-20T12:13:24;10.50;99.90
9223;DHT22;7557;51.698;3.942;2023-12-20T12:15:53;10.50;99.90
9223;DHT22;7557;51.698;3.942;2023-12-20T12:18:21;10.50;99.90
9223;DHT22;7557;51.698;3.942;2023-12-20T12:20:48;10.50;99.90
9223;DHT22;7557;51.698;3.942;2023-12-20T12:23:23;10.50;99.90
9223;DHT22;7557;51.698;3.942;2023-12-20T12:25:50;10.50;99.90
9223;DHT22;7557;51.698;3.942;2023-12-20T12:28:18;10.50;99.90
9223;DHT22;7557;51.698;3.942;2023-12-20T12:30:56;10.50;99.90
9223;DHT22;7557;51.698;3.942;2023-12-20T12:33:25;10.60;99.90
9223;DHT22;7557;51.698;3.942;2023-12-20T12:35:53;10.60;99.90
9223;DHT22;7557;51.698;3.942;2023-12-20T12:38:24;10.60;99.90
9223;DHT22;7557;51.698;3.942;2023-12-20T12:40:52;10.50;99.90
9223;DHT22;7557;51.698;3.942;2023-12-20T12:43:19;10.50;99.90
9223;DHT22;7557;51.698;3.942;2023-12-20T12:45:48;10.50;99.90
9223;DHT22;7557;51.698;3.942;2023-12-20T12:48:15;10.50;99.90
9223;DHT22;7557;51.698;3.942;2023-12-20T12:50:43;10.40;99.90
9223;DHT22;7557;51.698;3.942;2023-12-20T12:53:10;10.40;99.90
9223;DHT22;7557;51.698;3.942;2023-12-20T12:55:40;10.40;99.90
9223;DHT22;7557;51.698;3.942;2023-12-20T12:58:07;10.40;99.90
9223;DHT22;7557;51.698;3.942;2023-12-20T13:00:34;10.40;99.90
9223;DHT22;7557;51.698;3.942;2023-12-20T13:03:02;10.40;99.90
9223;DHT22;7557;51.698;3.942;2023-12-20T13:05:29;10.40;99.90
9223;DHT22;7557;51.698;3.942;2023-12-20T13:07:57;10.40;99.90
9223;DHT22;7557;51.698;3.942;2023-12-20T13:10:25;10.30;99.90
9223;DHT22;7557;51.698;3.942;2023-12-20T13:12:54;10.30;99.90
9223;DHT22;7557;51.698;3.942;2023-12-20T13:15:22;10.30;99.90
9223;DHT22;7557;51.698;3.942;2023-12-20T13:17:50;10.30;99.90
9223;DHT22;7557;51.698;3.942;2023-12-20T13:20:26;10.30;99.90
9223;DHT22;7557;51.698;3.942;2023-12-20T13:23:02;10.30;99.90
9223;DHT22;7557;51.698;3.942;2023-12-20T13:25:29;10.30;99.90
9223;DHT22;7557;51.698;3.942;2023-12-20T13:28:01;10.30;99.90
9223;DHT22;7557;51.698;3.942;2023-12-20T13:30:42;10.30;99.90
9223;DHT22;7557;51.698;3.942;2023-12-20T13:33:11;10.30;99.90
9223;DHT22;7557;51.698;3.942;2023-12-20T13:35:48;10.30;99.90
9223;DHT22;7557;51.698;3.942;2023-12-20T13:38:18;10.30;99.90
9223;DHT22;7557;51.698;3.942;2023-12-20T13:40:59;10.20;99.90
9223;DHT22;7557;51.698;3.942;2023-12-20T13:43:35;10.30;99.90
9223;DHT22;7557;51.698;3.942;2023-12-20T13:46:08;10.20;99.90
9223;DHT22;7557;51.698;3.942;2023-12-20T13:48:39;10.20;99.90
9223;DHT22;7557;51.698;3.942;2023-12-20T13:51:09;10.20;99.90
9223;DHT22;7557;51.698;3.942;2023-12-20T13:53:58;10.20;99.90
9223;DHT22;7557;51.698;3.942;2023-12-20T13:56:27;10.20;99.90
9223;DHT22;7557;51.698;3.942;2023-12-20T13:58:58;10.20;99.90
9223;DHT22;7557;51.698;3.942;2023-12-20T14:01:31;10.20;99.90
9223;DHT22;7557;51.698;3.942;2023-12-20T14:04:04;10.20;99.90
9223;DHT22;7557;51.698;3.942;2023-12-20T14:06:32;10.20;99.90
9223;DHT22;7557;51.698;3.942;2023-12-20T14:09:00;10.20;99.90
9223;DHT22;7557;51.698;3.942;2023-12-20T14:11:27;10.20;99.90
9223;DHT22;7557;51.698;3.942;2023-12-20T14:13:54;10.20;99.90
9223;DHT22;7557;51.698;3.942;2023-12-20T14:16:25;10.20;99.90
9223;DHT22;7557;51.698;3.942;2023-12-20T14:18:52;10.20;99.90
9223;DHT22;7557;51.698;3.942;2023-12-20T14:21:23;10.20;99.90
9223;DHT22;7557;51.698;3.942;2023-12-20T14:24:10;10.20;99.90
9223;DHT22;7557;51.698;3.942;2023-12-20T14:26:39;10.10;99.90
9223;DHT22;7557;51.698;3.942;2023-12-20T14:29:06;10.10;99.90
9223;DHT22;7557;51.698;3.942;2023-12-20T14:31:36;10.10;99.90
9223;DHT22;7557;51.698;3.942;2023-12-20T14:34:04;10.10;99.90
9223;DHT22;7557;51.698;3.942;2023-12-20T14:36:32;10.10;99.90
9223;DHT22;7557;51.698;3.942;2023-12-20T14:38:59;10.10;99.90
9223;DHT22;7557;51.698;3.942;2023-12-20T14:41:28;10.10;99.90
9223;DHT22;7557;51.698;3.942;2023-12-20T14:43:55;10.10;99.90
9223;DHT22;7557;51.698;3.942;2023-12-20T14:46:23;10.10;99.90
9223;DHT22;7557;51.698;3.942;2023-12-20T14:48:52;10.10;99.90
9223;DHT22;7557;51.698;3.942;2023-12-20T14:51:20;10.10;99.90
9223;DHT22;7557;51.698;3.942;2023-12-20T14:53:48;10.10;99.90
9223;DHT22;7557;51.698;3.942;2023-12-20T14:56:16;10.20;99.90
9223;DHT22;7557;51.698;3.942;2023-12-20T14:58:44;10.20;99.90
9223;DHT22;7557;51.698;3.942;2023-12-20T15:01:13;10.10;99.90
9223;DHT22;7557;51.698;3.942;2023-12-20T15:03:40;10.20;99.90
9223;DHT22;7557;51.698;3.942;2023-12-20T15:06:09;10.20;99.90
9223;DHT22;7557;51.698;3.942;2023-12-20T15:08:37;10.20;99.90
9223;DHT22;7557;51.698;3.942;2023-12-20T15:11:05;10.20;99.90
9223;DHT22;7557;51.698;3.942;2023-12-20T15:13:32;10.20;99.90
9223;DHT22;7557;51.698;3.942;2023-12-20T15:16:00;10.20;99.90
9223;DHT22;7557;51.698;3.942;2023-12-20T15:18:27;10.20;99.90
9223;DHT22;7557;51.698;3.942;2023-12-20T15:20:56;10.10;99.90
9223;DHT22;7557;51.698;3.942;2023-12-20T15:23:25;10.10;99.90
9223;DHT22;7557;51.698;3.942;2023-12-20T15:25:54;10.10;99.90
9223;DHT22;7557;51.698;3.942;2023-12-20T15:28:21;10.10;99.90
9223;DHT22;7557;51.698;3.942;2023-12-20T15:30:49;10.10;99.90
9223;DHT22;7557;51.698;3.942;2023-12-20T15:33:16;10.10;99.90
9223;DHT22;7557;51.698;3.942;2023-12-20T15:35:44;10.10;99.90
9223;DHT22;7557;51.698;3.942;2023-12-20T15:38:11;10.10;99.90
9223;DHT22;7557;51.698;3.942;2023-12-20T15:40:41;10.10;99.90
9223;DHT22;7557;51.698;3.942;2023-12-20T15:43:08;10.10;99.90
9223;DHT22;7557;51.698;3.942;2023-12-20T15:45:36;10.10;99.90
9223;DHT22;7557;51.698;3.942;2023-12-20T15:48:04;10.10;99.90
9223;DHT22;7557;51.698;3.942;2023-12-20T15:50:31;10.00;99.90
9223;DHT22;7557;51.698;3.942;2023-12-20T15:52:59;10.00;99.90
9223;DHT22;7557;51.698;3.942;2023-12-20T15:55:26;10.00;99.90
9223;DHT22;7557;51.698;3.942;2023-12-20T15:57:55;10.00;99.90
9223;DHT22;7557;51.698;3.942;2023-12-20T16:00:23;10.00;99.90
9223;DHT22;7557;51.698;3.942;2023-12-20T16:02:50;10.10;99.90
9223;DHT22;7557;51.698;3.942;2023-12-20T16:05:18;10.10;99.90
9223;DHT22;7557;51.698;3.942;2023-12-20T16:07:46;10.10;99.90
9223;DHT22;7557;51.698;3.942;2023-12-20T16:10:13;10.10;99.90
9223;DHT22;7557;51.698;3.942;2023-12-20T16:12:41;10.00;99.90
9223;DHT22;7557;51.698;3.942;2023-12-20T16:15:10;10.00;99.90
9223;DHT22;7557;51.698;3.942;2023-12-20T16:17:37;10.00;99.90
9223;DHT22;7557;51.698;3.942;2023-12-20T16:20:06;10.00;99.90